createdAt,value
2022-12-14T00:01:51.920Z,2.56
2022-12-14T00:04:20.641Z,2.59
2022-12-14T00:06:48.149Z,2.66
2022-12-14T00:09:16.019Z,2.56
2022-12-14T00:11:43.319Z,2.63
2022-12-14T00:14:10.656Z,2.69
2022-12-14T00:16:38.154Z,2.67
2022-12-14T00:19:05.756Z,2.70
2022-12-14T00:21:33.969Z,2.68
2022-12-14T00:24:01.386Z,2.71
2022-12-14T00:26:31.449Z,2.66
2022-12-14T00:29:01.392Z,2.66
2022-12-14T00:31:29.154Z,2.72
2022-12-14T00:33:56.654Z,2.60
2022-12-14T00:36:24.075Z,2.67
2022-12-14T00:38:51.582Z,2.66
2022-12-14T00:41:18.955Z,2.72
2022-12-14T00:43:49.256Z,2.69
2022-12-14T00:46:17.734Z,2.76
2022-12-14T00:48:45.315Z,2.77
2022-12-14T00:51:14.852Z,2.84
2022-12-14T00:53:44.619Z,2.80
2022-12-14T00:56:12.373Z,2.85
2022-12-14T00:58:41.593Z,2.81
2022-12-14T01:01:15.171Z,2.81
2022-12-14T01:03:43.008Z,2.87
2022-12-14T01:06:19.341Z,2.79
2022-12-14T01:08:47.603Z,2.80
2022-12-14T01:11:18.878Z,2.87
2022-12-14T01:13:49.745Z,2.80
2022-12-14T01:16:18.175Z,2.72
2022-12-14T01:18:45.999Z,2.69
2022-12-14T01:21:31.684Z,2.74
2022-12-14T01:24:01.560Z,2.78
2022-12-14T01:26:31.011Z,2.83
2022-12-14T01:28:59.681Z,2.79
2022-12-14T01:31:39.062Z,2.78
2022-12-14T01:34:08.042Z,2.76
2022-12-14T01:36:36.646Z,2.72
2022-12-14T01:39:09.515Z,2.71
2022-12-14T01:41:39.810Z,2.71
2022-12-14T01:44:10.231Z,2.75
2022-12-14T01:46:52.467Z,2.73
2022-12-14T01:49:26.164Z,2.62
2022-12-14T01:52:04.116Z,2.60
2022-12-14T01:54:35.159Z,2.64
2022-12-14T01:57:02.629Z,2.64
2022-12-14T01:59:38.390Z,2.60
2022-12-14T02:02:08.601Z,2.61
2022-12-14T02:04:42.117Z,2.60
2022-12-14T02:07:10.664Z,2.64
2022-12-14T02:09:41.194Z,2.67
2022-12-14T02:12:20.575Z,2.67
2022-12-14T02:14:48.633Z,2.62
2022-12-14T02:17:17.899Z,2.58
2022-12-14T02:19:46.976Z,2.61
2022-12-14T02:22:39.050Z,2.62
2022-12-14T02:25:33.836Z,2.55
2022-12-14T02:28:10.885Z,2.58
2022-12-14T02:30:40.937Z,2.65
2022-12-14T02:33:27.403Z,2.60
2022-12-14T02:36:09.417Z,2.61
2022-12-14T02:38:39.751Z,2.61
2022-12-14T02:41:38.300Z,2.65
2022-12-14T02:44:08.880Z,2.66
2022-12-14T02:46:50.047Z,2.61
2022-12-14T02:49:40.993Z,2.51
2022-12-14T02:52:20.513Z,2.51
2022-12-14T02:54:55.429Z,2.56
2022-12-14T02:57:33.402Z,2.56
2022-12-14T03:00:02.994Z,2.50
2022-12-14T03:02:35.724Z,2.44
2022-12-14T03:05:03.263Z,2.46
2022-12-14T03:07:41.097Z,2.43
2022-12-14T03:10:40.902Z,2.45
2022-12-14T03:13:36.127Z,2.48
2022-12-14T03:16:11.703Z,2.52
2022-12-14T03:18:57.370Z,2.53
2022-12-14T03:21:49.372Z,2.57
2022-12-14T03:24:24.193Z,2.56
2022-12-14T03:27:07.301Z,2.52
2022-12-14T03:29:40.694Z,2.58
2022-12-14T03:32:16.587Z,2.60
2022-12-14T03:34:55.368Z,2.55
2022-12-14T03:37:34.519Z,2.59
2022-12-14T03:40:01.964Z,2.63
2022-12-14T03:42:59.883Z,2.54
2022-12-14T03:45:37.345Z,2.56
2022-12-14T03:48:10.915Z,2.57
2022-12-14T03:50:41.820Z,2.51
2022-12-14T03:53:19.583Z,2.60
2022-12-14T03:56:03.965Z,2.48
2022-12-14T03:58:57.021Z,2.62
2022-12-14T04:01:46.592Z,2.57
2022-12-14T04:04:27.510Z,2.51
2022-12-14T04:07:01.153Z,2.51
2022-12-14T04:09:52.776Z,2.60
2022-12-14T04:12:51.394Z,2.43
2022-12-14T04:15:40.465Z,2.52
2022-12-14T04:18:32.048Z,2.47
2022-12-14T04:21:15.845Z,2.40
2022-12-14T04:24:08.230Z,2.48
2022-12-14T04:26:40.543Z,2.60
2022-12-14T04:29:33.200Z,2.56
2022-12-14T04:32:15.901Z,2.62
2022-12-14T04:34:50.931Z,2.52
2022-12-14T04:37:22.829Z,2.57
2022-12-14T04:40:25.997Z,2.59
2022-12-14T04:43:00.487Z,2.63
2022-12-14T04:45:35.122Z,2.45
2022-12-14T04:48:45.444Z,2.61
2022-12-14T04:51:40.883Z,2.61
2022-12-14T04:54:26.488Z,2.58
2022-12-14T04:57:03.763Z,2.45
2022-12-14T04:59:32.171Z,2.53
2022-12-14T05:02:19.886Z,2.46
2022-12-14T05:05:04.530Z,2.54
2022-12-14T05:07:37.834Z,2.53
2022-12-14T05:10:35.461Z,2.55
2022-12-14T05:13:19.077Z,2.56
2022-12-14T05:15:50.195Z,2.49
2022-12-14T05:18:18.595Z,2.59
2022-12-14T05:20:49.449Z,2.52
2022-12-14T05:23:17.393Z,2.57
2022-12-14T05:25:45.074Z,2.66
2022-12-14T05:28:16.595Z,2.48
2022-12-14T05:30:48.754Z,2.46
2022-12-14T05:33:19.869Z,2.55
2022-12-14T05:35:47.320Z,2.52
2022-12-14T05:38:14.958Z,2.48
2022-12-14T05:40:43.308Z,2.50
2022-12-14T05:43:13.717Z,2.54
2022-12-14T05:45:41.261Z,2.50
2022-12-14T05:48:08.754Z,2.53
2022-12-14T05:50:36.174Z,2.44
2022-12-14T05:53:03.584Z,2.42
2022-12-14T05:55:30.910Z,2.39
2022-12-14T05:57:58.336Z,2.53
2022-12-14T06:00:25.746Z,2.47
2022-12-14T06:02:55.568Z,2.42
2022-12-14T06:05:23.110Z,2.38
2022-12-14T06:07:50.574Z,2.49
2022-12-14T06:10:18.049Z,2.45
2022-12-14T06:12:45.497Z,2.47
2022-12-14T06:15:14.060Z,2.49
2022-12-14T06:17:45.684Z,2.46
2022-12-14T06:20:14.041Z,2.48
2022-12-14T06:22:47.595Z,2.45
2022-12-14T06:25:16.049Z,2.42
2022-12-14T06:27:43.540Z,2.35
2022-12-14T06:30:12.852Z,2.50
2022-12-14T06:32:40.215Z,2.53
2022-12-14T06:35:08.679Z,2.50
2022-12-14T06:37:36.164Z,2.59
2022-12-14T06:40:04.163Z,2.64
2022-12-14T06:42:31.736Z,2.75
2022-12-14T06:44:59.324Z,2.66
2022-12-14T06:47:28.325Z,2.53
2022-12-14T06:49:55.675Z,2.63
2022-12-14T06:52:26.730Z,2.47
2022-12-14T06:54:54.989Z,2.54
2022-12-14T06:57:22.369Z,2.67
2022-12-14T06:59:49.821Z,2.51
2022-12-14T07:02:17.486Z,2.77
2022-12-14T07:04:45.021Z,2.68
2022-12-14T07:07:12.551Z,2.56
2022-12-14T07:09:40.052Z,2.53
2022-12-14T07:12:07.547Z,2.68
2022-12-14T07:14:35.107Z,2.53
2022-12-14T07:17:02.517Z,2.62
2022-12-14T07:19:29.987Z,2.55
2022-12-14T07:21:57.360Z,2.65
2022-12-14T07:24:24.763Z,2.81
2022-12-14T07:26:56.387Z,2.76
2022-12-14T07:29:23.751Z,2.73
2022-12-14T07:31:51.409Z,2.66
2022-12-14T07:34:19.031Z,2.64
2022-12-14T07:36:50.610Z,2.58
2022-12-14T07:39:18.238Z,2.75
2022-12-14T07:41:47.211Z,2.73
2022-12-14T07:44:24.780Z,2.72
2022-12-14T07:46:53.443Z,2.82
2022-12-14T07:49:21.669Z,2.87
2022-12-14T07:51:49.062Z,2.78
2022-12-14T07:54:16.492Z,2.82
2022-12-14T07:56:44.675Z,2.81
2022-12-14T07:59:19.284Z,2.90
2022-12-14T08:01:47.192Z,2.85
2022-12-14T08:04:19.733Z,2.80
2022-12-14T08:06:48.559Z,2.83
2022-12-14T08:09:16.759Z,2.89
2022-12-14T08:11:45.181Z,2.95
2022-12-14T08:14:17.155Z,3.04
2022-12-14T08:17:02.904Z,2.95
2022-12-14T08:19:30.363Z,3.03
2022-12-14T08:21:57.773Z,3.03
2022-12-14T08:24:28.090Z,3.04
2022-12-14T08:26:55.620Z,2.96
2022-12-14T08:29:23.006Z,3.04
2022-12-14T08:31:50.482Z,3.03
2022-12-14T08:34:22.826Z,3.08
2022-12-14T08:36:53.319Z,3.21
2022-12-14T08:39:21.266Z,3.28
2022-12-14T08:41:48.634Z,3.26
2022-12-14T08:44:17.504Z,3.32
2022-12-14T08:46:44.990Z,3.34
2022-12-14T08:49:12.558Z,3.27
2022-12-14T08:51:40.040Z,3.37
2022-12-14T08:54:07.530Z,3.42
2022-12-14T08:56:35.025Z,3.38
2022-12-14T08:59:02.345Z,3.44
2022-12-14T09:01:34.660Z,3.46
2022-12-14T09:04:05.354Z,3.59
2022-12-14T09:06:35.272Z,3.63
2022-12-14T09:09:03.816Z,3.63
2022-12-14T09:11:31.303Z,3.80
2022-12-14T09:13:58.730Z,3.84
2022-12-14T09:16:29.060Z,3.83
2022-12-14T09:18:56.602Z,3.88
2022-12-14T09:21:24.187Z,3.92
2022-12-14T09:23:57.378Z,4.17
2022-12-14T09:26:27.705Z,4.20
2022-12-14T09:28:56.819Z,4.08
2022-12-14T09:31:26.291Z,4.15
2022-12-14T09:33:55.070Z,3.96
2022-12-14T09:36:27.730Z,3.86
2022-12-14T09:38:56.664Z,4.11
2022-12-14T09:41:36.124Z,3.95
2022-12-14T09:44:19.252Z,4.01
2022-12-14T09:47:17.177Z,3.95
2022-12-14T09:50:07.217Z,4.05
2022-12-14T09:52:37.096Z,4.17
2022-12-14T09:55:16.605Z,4.12
2022-12-14T09:58:01.568Z,4.06
2022-12-14T10:00:36.424Z,4.10
2022-12-14T10:03:34.332Z,4.29
2022-12-14T10:06:59.462Z,4.45
2022-12-14T10:09:35.892Z,4.66
2022-12-14T10:12:11.836Z,4.80
2022-12-14T10:15:07.201Z,4.79
2022-12-14T10:18:22.355Z,5.14
2022-12-14T10:21:14.736Z,5.11
2022-12-14T10:24:08.520Z,5.17
2022-12-14T10:26:42.745Z,5.22
2022-12-14T10:29:28.832Z,5.13
2022-12-14T10:32:05.632Z,5.19
2022-12-14T10:34:34.872Z,5.00
2022-12-14T10:37:14.202Z,4.99
2022-12-14T10:40:02.571Z,4.86
2022-12-14T10:42:33.517Z,4.86
2022-12-14T10:45:39.083Z,4.86
2022-12-14T10:48:25.773Z,4.87
2022-12-14T10:51:25.710Z,5.00
2022-12-14T10:54:18.869Z,5.11
2022-12-14T10:56:50.637Z,5.04
2022-12-14T10:59:18.234Z,5.31
2022-12-14T11:01:48.164Z,5.36
2022-12-14T11:04:46.804Z,5.24
2022-12-14T11:07:16.415Z,5.30
2022-12-14T11:09:44.201Z,5.38
2022-12-14T11:12:23.102Z,5.51
2022-12-14T11:15:00.766Z,5.38
2022-12-14T11:17:36.469Z,5.38
2022-12-14T11:20:27.714Z,5.30
2022-12-14T11:23:06.981Z,5.39
2022-12-14T11:25:47.242Z,5.24
2022-12-14T11:28:37.202Z,5.45
2022-12-14T11:31:15.376Z,5.36
2022-12-14T11:33:49.979Z,5.46
2022-12-14T11:36:33.315Z,5.36
2022-12-14T11:39:22.281Z,5.40
2022-12-14T11:41:59.594Z,5.21
2022-12-14T11:44:36.155Z,5.36
2022-12-14T11:47:08.610Z,5.35
2022-12-14T11:49:38.995Z,5.50
2022-12-14T11:52:15.356Z,5.66
2022-12-14T11:54:51.946Z,5.65
2022-12-14T11:57:29.988Z,5.55
2022-12-14T12:00:00.672Z,5.53
2022-12-14T12:02:48.001Z,5.97
2022-12-14T12:05:18.905Z,5.92
2022-12-14T12:07:49.375Z,6.03
2022-12-14T12:10:22.099Z,6.10
2022-12-14T12:12:54.460Z,6.14
2022-12-14T12:15:41.247Z,6.30
2022-12-14T12:18:31.503Z,6.06
2022-12-14T12:21:08.432Z,6.05
2022-12-14T12:23:43.775Z,5.94
2022-12-14T12:26:30.506Z,5.97
2022-12-14T12:29:15.524Z,5.80
2022-12-14T12:31:53.647Z,5.82
2022-12-14T12:34:29.352Z,5.81
2022-12-14T12:37:25.860Z,5.84
2022-12-14T12:39:55.617Z,5.86
2022-12-14T12:42:34.493Z,6.06
2022-12-14T12:45:14.539Z,6.03
2022-12-14T12:47:49.993Z,5.92
2022-12-14T12:50:21.628Z,6.08
2022-12-14T12:53:02.760Z,6.11
2022-12-14T12:55:35.434Z,6.12
2022-12-14T12:58:05.074Z,5.99
2022-12-14T13:00:37.144Z,6.08
2022-12-14T13:03:20.453Z,6.07
2022-12-14T13:05:54.086Z,5.93
2022-12-14T13:08:32.020Z,6.05
2022-12-14T13:14:14.568Z,6.18
2022-12-14T13:16:43.086Z,5.97
2022-12-14T13:19:51.089Z,5.95
2022-12-14T13:22:27.894Z,6.00
2022-12-14T13:24:59.716Z,6.05
2022-12-14T13:27:36.917Z,5.98
2022-12-14T13:30:12.053Z,5.93
2022-12-14T13:33:13.367Z,5.92
2022-12-14T13:35:46.656Z,6.04
2022-12-14T13:38:17.226Z,6.10
2022-12-14T13:40:44.574Z,5.99
2022-12-14T13:43:17.597Z,5.83
2022-12-14T13:45:49.991Z,5.78
2022-12-14T13:48:25.531Z,5.89
2022-12-14T13:51:01.874Z,5.89
2022-12-14T13:53:55.364Z,5.86
2022-12-14T13:56:32.614Z,5.80
2022-12-14T13:59:04.947Z,5.97
2022-12-14T14:01:48.034Z,5.98
2022-12-14T14:04:30.014Z,6.09
2022-12-14T14:07:23.399Z,5.96
2022-12-14T14:09:57.552Z,5.91
2022-12-14T14:12:43.229Z,5.73
2022-12-14T14:15:26.644Z,5.81
2022-12-14T14:17:55.449Z,5.80
2022-12-14T14:20:31.813Z,5.81
2022-12-14T14:23:14.362Z,6.01
2022-12-14T14:25:52.981Z,5.94
2022-12-14T14:28:27.508Z,5.85
2022-12-14T14:30:59.655Z,6.05
2022-12-14T14:33:59.596Z,5.89
2022-12-14T14:36:36.173Z,5.85
2022-12-14T14:39:24.502Z,5.72
2022-12-14T14:41:55.191Z,5.83
2022-12-14T14:44:51.095Z,5.81
2022-12-14T14:47:35.800Z,5.64
2022-12-14T14:50:18.214Z,5.51
2022-12-14T14:52:58.632Z,5.60
2022-12-14T14:58:25.065Z,5.62
2022-12-14T15:01:06.226Z,5.59
2022-12-14T15:03:52.460Z,5.62
2022-12-14T15:06:28.872Z,5.57
2022-12-14T15:09:27.232Z,5.49
2022-12-14T15:12:01.265Z,5.37
2022-12-14T15:14:35.597Z,5.50
2022-12-14T15:17:14.905Z,5.38
2022-12-14T15:19:50.637Z,5.36
2022-12-14T15:22:21.567Z,5.35
2022-12-14T15:24:54.454Z,5.25
2022-12-14T15:27:37.171Z,5.31
2022-12-14T15:30:11.530Z,5.33
2022-12-14T15:32:48.019Z,5.32
2022-12-14T15:35:18.697Z,5.40
2022-12-14T15:37:54.743Z,5.42
2022-12-14T15:40:27.455Z,5.35
2022-12-14T15:42:57.307Z,5.46
2022-12-14T15:45:34.815Z,5.50
2022-12-14T15:48:14.269Z,5.55
2022-12-14T15:50:46.081Z,5.65
2022-12-14T15:53:41.071Z,5.46
2022-12-14T15:56:27.359Z,5.49
2022-12-14T15:58:57.667Z,5.37
2022-12-14T16:01:32.693Z,5.33
2022-12-14T16:04:05.175Z,5.17
2022-12-14T16:06:40.651Z,5.30
2022-12-14T16:09:10.931Z,5.25
2022-12-14T16:11:49.565Z,5.22
2022-12-14T16:14:31.348Z,5.18
2022-12-14T16:17:02.096Z,5.18
2022-12-14T16:19:57.429Z,5.26
2022-12-14T16:22:25.684Z,5.12
2022-12-14T16:25:08.408Z,5.20
2022-12-14T16:27:40.614Z,4.95
2022-12-14T16:30:19.209Z,5.27
2022-12-14T16:32:50.051Z,5.03
2022-12-14T16:35:26.385Z,5.15
2022-12-14T16:37:58.003Z,5.06
2022-12-14T16:40:33.612Z,5.04
2022-12-14T16:43:02.641Z,5.09
2022-12-14T16:45:36.371Z,5.14
2022-12-14T16:48:18.291Z,5.05
2022-12-14T16:51:01.771Z,5.05
2022-12-14T16:53:51.224Z,4.96
2022-12-14T16:56:24.232Z,4.96
2022-12-14T16:59:06.388Z,4.96
2022-12-14T17:01:46.882Z,5.11
2022-12-14T17:04:20.080Z,5.06
2022-12-14T17:06:54.036Z,4.83
2022-12-14T17:09:28.487Z,4.89
2022-12-14T17:12:00.108Z,4.99
2022-12-14T17:14:27.908Z,5.01
2022-12-14T17:17:01.136Z,4.91
2022-12-14T17:19:35.619Z,4.94
2022-12-14T17:22:05.360Z,4.84
2022-12-14T17:24:36.042Z,4.75
2022-12-14T17:27:04.371Z,4.74
2022-12-14T17:29:33.242Z,4.59
2022-12-14T17:32:03.557Z,4.55
2022-12-14T17:34:31.175Z,4.67
2022-12-14T17:36:58.649Z,4.68
2022-12-14T17:39:28.646Z,4.52
2022-12-14T17:41:56.076Z,4.57
2022-12-14T17:44:25.120Z,4.73
2022-12-14T17:46:52.581Z,4.90
2022-12-14T17:49:34.108Z,4.80
2022-12-14T17:52:07.350Z,4.72
2022-12-14T17:54:37.470Z,4.68
2022-12-14T17:57:05.614Z,4.82
2022-12-14T17:59:33.036Z,4.68
2022-12-14T18:02:00.575Z,4.68
2022-12-14T18:04:28.240Z,4.70
2022-12-14T18:06:55.612Z,4.83
2022-12-14T18:09:23.032Z,4.74
2022-12-14T18:12:21.586Z,4.69
2022-12-14T18:14:38.116Z,4.40
2022-12-14T18:17:11.033Z,4.68
2022-12-14T18:19:39.026Z,4.52
2022-12-14T18:22:07.610Z,4.45
2022-12-14T18:24:35.159Z,4.46
2022-12-14T18:27:02.505Z,4.56
2022-12-14T18:29:29.932Z,4.58
2022-12-14T18:31:57.486Z,4.46
2022-12-14T18:34:24.928Z,4.38
2022-12-14T18:36:52.527Z,4.43
2022-12-14T18:39:19.945Z,4.52
2022-12-14T18:41:50.187Z,4.50
2022-12-14T18:44:17.635Z,4.38
2022-12-14T18:46:45.089Z,4.52
2022-12-14T18:49:16.968Z,4.60
2022-12-14T18:51:44.508Z,4.53
2022-12-14T18:54:11.914Z,4.43
2022-12-14T18:56:42.043Z,4.47
2022-12-14T18:59:09.822Z,4.47
2022-12-14T19:01:37.323Z,4.46
2022-12-14T19:04:05.755Z,4.34
2022-12-14T19:06:44.093Z,4.39
2022-12-14T19:09:14.145Z,4.29
2022-12-14T19:11:44.651Z,4.29
2022-12-14T19:14:12.227Z,4.52
2022-12-14T19:16:39.769Z,4.45
2022-12-14T19:19:07.278Z,4.38
2022-12-14T19:21:34.625Z,4.37
2022-12-14T19:24:02.068Z,4.35
2022-12-14T19:26:30.688Z,4.44
2022-12-14T19:28:58.555Z,4.44
2022-12-14T19:31:26.552Z,4.38
2022-12-14T19:33:54.044Z,4.49
2022-12-14T19:36:24.858Z,4.45
2022-12-14T19:38:52.233Z,4.33
2022-12-14T19:41:21.342Z,4.30
2022-12-14T19:43:49.025Z,4.46
2022-12-14T19:46:18.035Z,4.41
2022-12-14T19:48:45.871Z,4.66
2022-12-14T19:51:14.295Z,4.36
2022-12-14T19:53:43.336Z,4.26
2022-12-14T19:56:13.942Z,4.42
2022-12-14T19:58:41.563Z,4.43
2022-12-14T20:01:14.058Z,4.36
2022-12-14T20:03:41.914Z,4.25
2022-12-14T20:06:09.519Z,4.16
2022-12-14T20:08:37.076Z,4.20
2022-12-14T20:11:10.048Z,4.23
2022-12-14T20:13:38.346Z,4.15
2022-12-14T20:16:06.214Z,4.17
2022-12-14T20:18:33.826Z,4.21
2022-12-14T20:21:06.773Z,4.29
2022-12-14T20:23:35.421Z,4.15
2022-12-14T20:26:16.143Z,4.17
2022-12-14T20:28:46.557Z,4.10
2022-12-14T20:31:17.178Z,4.13
2022-12-14T20:33:45.233Z,4.06
2022-12-14T20:36:12.749Z,4.02
2022-12-14T20:38:40.171Z,3.99
2022-12-14T20:41:10.435Z,3.98
2022-12-14T20:43:40.272Z,3.96
2022-12-14T20:46:24.937Z,4.01
2022-12-14T20:48:52.591Z,3.85
2022-12-14T20:51:20.545Z,3.99
2022-12-14T20:53:49.304Z,3.86
2022-12-14T20:56:16.787Z,3.90
2022-12-14T20:58:50.461Z,3.83
2022-12-14T21:01:19.192Z,3.74
2022-12-14T21:03:48.416Z,3.77
2022-12-14T21:06:20.159Z,3.73
2022-12-14T21:09:10.054Z,3.74
2022-12-14T21:12:06.476Z,3.69
2022-12-14T21:14:37.489Z,3.73
2022-12-14T21:17:05.293Z,3.64
2022-12-14T21:19:35.347Z,3.53
2022-12-14T21:22:04.940Z,3.48
2022-12-14T21:25:01.645Z,3.50
2022-12-14T21:27:25.663Z,3.44
2022-12-14T21:29:53.844Z,3.48
2022-12-14T21:32:22.285Z,3.41
2022-12-14T21:34:50.007Z,3.42
2022-12-14T21:37:17.902Z,3.44
2022-12-14T21:39:52.386Z,3.37
2022-12-14T21:42:26.542Z,3.53
2022-12-14T21:44:55.289Z,3.52
2022-12-14T21:47:29.089Z,3.59
2022-12-14T21:49:57.135Z,3.46
2022-12-14T21:52:28.922Z,3.32
2022-12-14T21:54:58.589Z,3.34
2022-12-14T21:57:50.518Z,3.36
2022-12-14T22:00:19.171Z,3.27
2022-12-14T22:02:46.700Z,3.22
2022-12-14T22:05:14.246Z,3.15
2022-12-14T22:07:41.943Z,3.34
2022-12-14T22:10:09.507Z,3.14
2022-12-14T22:12:36.857Z,3.25
2022-12-14T22:15:04.399Z,3.22
2022-12-14T22:17:34.719Z,3.16
2022-12-14T22:20:02.383Z,3.11
2022-12-14T22:22:29.778Z,3.06
2022-12-14T22:24:57.190Z,3.14
2022-12-14T22:27:24.442Z,3.26
2022-12-14T22:29:51.809Z,3.18
2022-12-14T22:32:19.318Z,3.07
2022-12-14T22:34:46.775Z,2.99
2022-12-14T22:37:16.764Z,2.88
2022-12-14T22:39:44.625Z,2.79
2022-12-14T22:42:16.214Z,2.71
2022-12-14T22:44:43.638Z,2.64
2022-12-14T22:47:10.997Z,2.62
2022-12-14T22:49:38.418Z,2.54
2022-12-14T22:52:05.752Z,2.51
2022-12-14T22:54:33.088Z,2.54
2022-12-14T22:57:04.147Z,2.53
2022-12-14T22:59:39.302Z,2.54
2022-12-14T23:02:06.844Z,2.47
2022-12-14T23:04:36.712Z,2.53
2022-12-14T23:07:04.312Z,2.48
2022-12-14T23:09:50.178Z,2.61
2022-12-14T23:12:36.030Z,2.62
2022-12-14T23:15:22.435Z,2.58
2022-12-14T23:18:08.425Z,2.47
2022-12-14T23:20:57.402Z,2.41
2022-12-14T23:23:43.243Z,2.31
2022-12-14T23:26:29.267Z,2.30
2022-12-14T23:29:14.951Z,2.40
2022-12-14T23:32:00.757Z,2.40
2022-12-14T23:34:47.883Z,2.27
2022-12-14T23:37:34.373Z,2.27
2022-12-14T23:40:20.534Z,2.30
2022-12-14T23:43:06.648Z,2.29
2022-12-14T23:45:52.707Z,2.55
2022-12-14T23:48:38.572Z,2.63
2022-12-14T23:51:25.062Z,2.65
2022-12-14T23:54:10.993Z,2.68
2022-12-14T23:56:57.046Z,2.56
2022-12-14T23:59:43.171Z,2.61
